Terminal Aerodrome Forecast
Issued by NWS

Current Version | Previous Version | Text Only | Print | Product List | Glossary On
Versions: 1 2 3 4 5 6 7 8 9 10 11 12 13 14 15
000
FTUS43 KOAX 041120
TAFBFF
TAF
KBFF 041120Z 0412/0512 13008KT P6SM SCT100
     FM042100 08008KT P6SM VCTS FEW070CB
     FM050600 07005KT P6SM SCT200=

USA.gov is the U.S. government's official web portal to all federal, state and local government web resources and services.